Strona główna
METAR-TAF:

METAR-TAF

Lotnisko :

Port lotniczy Ateny

Ateny, Grecja

Szerokość geograficzna: 37-56N, Długość geograficzna: 023-56E, wysokość: 94 m

Aktualna obserwacja pogody

Raport powstał 32 minut temu, godzina 06:50 UTC
Wiatr 17 kt od północno-północny wschód
Temperatura 27°C
Wilgotność 39%
Ciśnienie 1015 hPa
Widzialność 10 km lub więcej
Mało chmury na wysokości 3000 ft

METAR: LGAV 200650Z 03017KT 9999 FEW030 27/12 Q1015 NOSIG

czas: 10:22 (07:22 UTC)

Prognoza

Raport powstał 2 godziny i 22 minut temu, godzina 05:00 UTC
Prognoza ważna od 20 godzina 06 UTC do 21 godzina 06 UTC
Wiatr 15 kt od północno-północny wschód
Widzialność 10 km lub więcej
Mało chmury na wysokości 3000 ft
Przejściowo
od 20 godzina 09 UTC do 20 godzina 15 UTC
Wiatr 15 kt od północno-północny wschód w porywach dochodzący do 25 kt

TAF: LGAV 200500Z 2006/2106 02015KT 9999 FEW030 TEMPO 2009/2015 02015G25KT

Obserwacja i prognoza pogody dla ponad 4000 lotnisk (raport METAR i TAF).

Dostępne stacje oznaczono żółtymi i czerwonymi punktami na mapie.

Najedź kursorem aby zobaczyć nazwę stacji.

Kliknij aby zobaczyć obserwacje i prognozy pogody.

Aby zmienić mapę: kliknij na zielony przycisk z czarnym krzyżykiem, aby powiększyć; na zielony przycisk z myślnikiem, aby pomniejszyć; na zielone strzałki, aby przejść do map sąsiednich.


METAR-TAF: